Terminal Aerodrome Forecast
Issued by NWS

Current Version | Previous Version | Text Only | Print | Product List | Glossary On
Versions: 1 2 3 4 5 6 7 8 9 10 11 12
000
FTUS45 KLKN 151120
TAFELY
TAF
KELY 151120Z 1512/1612 17011KT P6SM SCT200
     FM152000 22006KT P6SM BKN200
     FM160200 18009KT P6SM OVC150
     FM160900 18009KT P6SM VCSH FEW035 OVC080=

USA.gov is the U.S. government's official web portal to all federal, state and local government web resources and services.